createdAt,value
2022-12-26T00:01:45.913Z,101000.44
2022-12-26T00:04:53.155Z,101002.06
2022-12-26T00:07:57.748Z,101004.84
2022-12-26T00:11:00.278Z,101007.50
2022-12-26T00:14:03.824Z,101009.94
2022-12-26T00:17:06.424Z,101019.09
2022-12-26T00:20:10.019Z,101007.16
2022-12-26T00:23:13.925Z,101017.47
2022-12-26T00:26:17.651Z,101020.25
2022-12-26T00:29:20.224Z,101019.41
2022-12-26T00:32:22.763Z,101016.16
2022-12-26T00:35:25.295Z,101018.50
2022-12-26T00:38:29.223Z,101015.72
2022-12-26T00:41:32.016Z,101022.41
2022-12-26T00:44:34.707Z,101016.34
2022-12-26T00:47:37.343Z,101018.66
2022-12-26T00:50:39.966Z,101022.59
2022-12-26T00:53:43.908Z,101005.94
2022-12-26T00:56:46.587Z,100993.19
2022-12-26T00:59:49.098Z,100999.91
2022-12-26T01:02:51.796Z,100996.31
2022-12-26T01:05:54.416Z,101012.16
2022-12-26T01:08:59.462Z,100994.66
2022-12-26T01:12:01.993Z,100996.63
2022-12-26T01:15:05.052Z,101006.13
2022-12-26T01:18:07.649Z,101008.44
2022-12-26T01:21:11.398Z,101007.31
2022-12-26T01:24:15.347Z,100988.28
2022-12-26T01:27:17.880Z,100995.50
2022-12-26T01:30:20.655Z,100986.66
2022-12-26T01:33:23.264Z,100996.19
2022-12-26T01:36:25.832Z,101002.56
2022-12-26T01:39:29.726Z,101008.78
2022-12-26T01:42:37.376Z,101011.91
2022-12-26T01:45:40.100Z,101028.47
2022-12-26T01:48:43.141Z,101021.38
2022-12-26T01:51:47.295Z,101020.56
2022-12-26T01:54:51.580Z,101004.72
2022-12-26T01:57:56.169Z,101007.84
2022-12-26T02:00:58.820Z,101001.47
2022-12-26T02:04:30.503Z,100997.56
2022-12-26T02:07:33.241Z,101005.41
2022-12-26T02:10:40.006Z,100990.44
2022-12-26T02:13:42.602Z,100999.84
2022-12-26T02:16:45.287Z,101004.94
2022-12-26T02:19:50.676Z,100993.69
2022-12-26T02:23:31.610Z,101007.03
2022-12-26T02:27:04.697Z,100994.97
2022-12-26T02:30:09.520Z,100977.63
2022-12-26T02:33:33.380Z,100972.72
2022-12-26T02:36:44.235Z,100973.81
2022-12-26T02:39:55.805Z,100988.03
2022-12-26T02:43:00.139Z,100998.47
2022-12-26T02:46:38.032Z,100996.84
2022-12-26T02:50:07.633Z,101002.63
2022-12-26T02:53:41.917Z,100991.72
2022-12-26T02:57:04.409Z,100993.09
2022-12-26T03:00:26.796Z,100988.91
2022-12-26T03:03:47.904Z,100996.63
2022-12-26T03:07:11.909Z,101000.41
2022-12-26T03:10:35.141Z,101015.00
2022-12-26T03:13:37.738Z,101015.00
2022-12-26T03:16:57.912Z,101009.78
2022-12-26T03:20:02.518Z,101008.47
2022-12-26T03:23:08.170Z,101001.31
2022-12-26T03:26:31.024Z,100980.91
2022-12-26T03:29:53.591Z,100966.56
2022-12-26T03:32:56.565Z,100970.50
2022-12-26T03:35:59.183Z,100979.16
2022-12-26T03:39:08.417Z,100976.72
2022-12-26T03:42:29.279Z,100987.81
2022-12-26T03:46:01.475Z,100984.59
2022-12-26T03:49:24.895Z,100973.88
2022-12-26T03:52:46.803Z,100994.41
2022-12-26T03:56:13.905Z,100990.00
2022-12-26T03:59:36.030Z,100992.66
2022-12-26T04:02:56.010Z,100981.53
2022-12-26T04:06:16.744Z,100978.75
2022-12-26T04:09:38.540Z,100987.53
2022-12-26T04:13:00.152Z,100996.25
2022-12-26T04:16:33.685Z,101003.06
2022-12-26T04:19:58.108Z,101005.03
2022-12-26T04:23:20.625Z,101009.75
2022-12-26T04:26:45.019Z,101013.84
2022-12-26T04:30:06.694Z,101014.97
2022-12-26T04:33:29.615Z,101012.53
2022-12-26T04:36:51.113Z,101019.38
2022-12-26T04:40:11.871Z,101000.28
2022-12-26T04:43:50.052Z,100989.88
2022-12-26T04:46:55.193Z,100982.69
2022-12-26T04:50:12.108Z,100981.06
2022-12-26T04:53:15.644Z,100966.84
2022-12-26T04:56:18.697Z,100968.31
2022-12-26T04:59:21.516Z,100965.22
2022-12-26T05:02:43.271Z,100967.16
2022-12-26T05:06:03.949Z,100977.13
2022-12-26T05:09:24.341Z,100962.75
2022-12-26T05:12:26.926Z,100972.41
2022-12-26T05:15:49.507Z,100966.03
2022-12-26T05:19:11.461Z,100970.44
2022-12-26T05:22:31.552Z,100984.44
2022-12-26T05:25:52.922Z,100986.19
2022-12-26T05:28:57.297Z,100976.72
2022-12-26T05:32:00.915Z,100975.09
2022-12-26T05:35:04.237Z,100977.41
2022-12-26T05:38:06.830Z,100979.81
2022-12-26T05:41:09.399Z,100961.56
2022-12-26T05:44:11.979Z,100980.50
2022-12-26T05:47:14.555Z,100971.84
2022-12-26T05:50:18.634Z,100980.50
2022-12-26T05:53:21.208Z,100977.75
2022-12-26T05:56:23.870Z,100982.97
2022-12-26T05:59:26.612Z,100982.97
2022-12-26T06:02:30.568Z,100978.22
2022-12-26T06:05:34.663Z,100988.97
2022-12-26T06:08:37.278Z,100998.13
2022-12-26T06:11:45.280Z,100983.91
2022-12-26T06:14:51.238Z,100991.75
2022-12-26T06:17:55.329Z,100995.69
2022-12-26T06:20:59.200Z,100996.47
2022-12-26T06:24:02.213Z,100995.81
2022-12-26T06:27:04.757Z,100991.09
2022-12-26T06:30:08.002Z,100983.91
2022-12-26T06:33:10.577Z,100987.81
2022-12-26T06:36:15.290Z,100981.59
2022-12-26T06:39:17.838Z,100990.38
2022-12-26T06:42:20.411Z,100986.94
2022-12-26T06:45:23.027Z,100991.34
2022-12-26T06:48:25.642Z,100999.69
2022-12-26T06:51:29.617Z,100997.03
2022-12-26T06:54:32.193Z,100993.91
2022-12-26T06:57:34.729Z,100994.75
2022-12-26T07:00:37.364Z,100986.88
2022-12-26T07:03:44.771Z,100994.84
2022-12-26T07:06:52.619Z,100988.38
2022-12-26T07:09:55.198Z,100976.78
2022-12-26T07:12:57.790Z,100979.44
2022-12-26T07:16:00.678Z,100991.34
2022-12-26T07:19:03.337Z,100983.84
2022-12-26T07:22:07.199Z,100995.88
2022-12-26T07:25:10.359Z,100997.63
2022-12-26T07:28:12.933Z,101001.09
2022-12-26T07:31:17.327Z,101009.88
2022-12-26T07:34:19.914Z,100989.66
2022-12-26T07:37:23.795Z,101004.34
2022-12-26T07:40:26.391Z,101014.31
2022-12-26T07:43:28.983Z,101004.34
2022-12-26T07:46:31.629Z,101023.59
2022-12-26T07:49:34.230Z,101005.31
2022-12-26T07:52:38.168Z,101018.16
2022-12-26T07:55:40.778Z,101020.28
2022-12-26T07:58:43.327Z,101051.78
2022-12-26T08:01:45.953Z,101063.00
2022-12-26T08:04:48.669Z,101082.13
2022-12-26T08:07:52.600Z,101073.94
2022-12-26T08:10:59.778Z,101077.38
2022-12-26T08:14:02.464Z,101089.31
2022-12-26T08:17:05.103Z,101103.69
2022-12-26T08:20:08.467Z,101102.88
2022-12-26T08:23:12.347Z,101121.84
2022-12-26T08:26:20.681Z,101118.59
2022-12-26T08:29:23.284Z,101124.81
2022-12-26T08:32:25.963Z,101128.97
2022-12-26T08:35:30.099Z,101135.53
2022-12-26T08:38:34.269Z,101127.53
2022-12-26T08:41:36.958Z,101142.56
2022-12-26T08:44:39.551Z,101145.00
2022-12-26T08:47:42.095Z,101165.59
2022-12-26T08:50:44.635Z,101188.66
2022-12-26T08:53:49.493Z,101209.38
2022-12-26T08:56:52.230Z,101214.09
2022-12-26T08:59:54.856Z,101224.25
2022-12-26T09:02:57.500Z,101236.06
2022-12-26T09:06:05.592Z,101248.50
2022-12-26T09:09:11.678Z,101242.66
2022-12-26T09:12:14.318Z,101266.19
2022-12-26T09:15:17.041Z,101269.13
2022-12-26T09:18:19.887Z,101293.47
2022-12-26T09:21:22.437Z,101308.34
2022-12-26T09:24:26.352Z,101317.69
2022-12-26T09:27:29.635Z,101310.81
2022-12-26T09:30:32.246Z,101331.56
2022-12-26T09:33:37.551Z,101343.97
2022-12-26T09:36:40.279Z,101338.09
2022-12-26T09:39:44.197Z,101357.69
2022-12-26T09:42:50.822Z,101356.06
2022-12-26T09:46:00.404Z,101351.66
2022-12-26T09:49:05.439Z,101367.81
2022-12-26T09:52:12.652Z,101369.13
2022-12-26T09:55:31.419Z,101390.66
2022-12-26T09:58:34.992Z,101382.50
2022-12-26T10:01:37.691Z,101368.13
2022-12-26T10:04:40.506Z,101386.41
2022-12-26T10:07:45.122Z,101392.63
2022-12-26T10:10:51.447Z,101392.63
2022-12-26T10:13:56.692Z,101403.72
2022-12-26T10:17:01.773Z,101404.34
2022-12-26T10:20:14.000Z,101409.91
2022-12-26T10:23:24.120Z,101417.09
2022-12-26T10:26:30.810Z,101426.56
2022-12-26T10:29:35.888Z,101426.13
2022-12-26T10:32:40.099Z,101430.22
2022-12-26T10:35:43.955Z,101422.94
2022-12-26T10:38:47.118Z,101443.66
2022-12-26T10:41:53.103Z,101436.75
2022-12-26T10:44:55.686Z,101441.00
2022-12-26T10:47:58.992Z,101452.22
2022-12-26T10:51:01.533Z,101453.94
2022-12-26T10:54:04.059Z,101452.41
2022-12-26T10:57:08.359Z,101452.81
2022-12-26T11:00:15.739Z,101468.50
2022-12-26T11:03:19.118Z,101480.31
2022-12-26T11:06:21.787Z,101485.28
2022-12-26T11:09:27.328Z,101484.66
2022-12-26T11:12:38.022Z,101505.47
2022-12-26T11:15:41.336Z,101491.25
2022-12-26T11:18:48.073Z,101496.47
2022-12-26T11:21:50.600Z,101489.81
2022-12-26T11:25:14.306Z,101506.63
2022-12-26T11:28:25.421Z,101511.50
2022-12-26T11:31:30.912Z,101520.94
2022-12-26T11:34:35.217Z,101512.00
2022-12-26T11:37:43.899Z,101519.56
2022-12-26T11:41:08.639Z,101517.09
2022-12-26T11:44:19.531Z,101526.66
2022-12-26T11:47:23.018Z,101530.22
2022-12-26T11:50:27.233Z,101529.00
2022-12-26T11:53:31.503Z,101531.72
2022-12-26T11:56:34.074Z,101526.81
2022-12-26T11:59:37.999Z,101537.88
2022-12-26T12:02:40.578Z,101539.84
2022-12-26T12:05:46.817Z,101543.06
2022-12-26T12:08:53.124Z,101547.81
2022-12-26T12:11:57.786Z,101542.69
2022-12-26T12:15:05.069Z,101548.41
2022-12-26T12:18:10.942Z,101558.38
2022-12-26T12:21:16.112Z,101562.91
2022-12-26T12:24:27.282Z,101563.81
2022-12-26T12:27:31.420Z,101570.09
2022-12-26T12:30:39.668Z,101579.47
2022-12-26T12:33:46.670Z,101574.59
2022-12-26T12:36:55.014Z,101582.94
2022-12-26T12:40:01.950Z,101587.63
2022-12-26T12:43:09.060Z,101590.81
2022-12-26T12:46:18.181Z,101590.44
2022-12-26T12:49:33.409Z,101578.94
2022-12-26T12:52:42.373Z,101594.56
2022-12-26T12:55:53.148Z,101590.66
2022-12-26T12:58:58.187Z,101589.56
2022-12-26T13:02:11.047Z,101587.09
2022-12-26T13:05:26.950Z,101593.94
2022-12-26T13:08:31.661Z,101607.59
2022-12-26T13:11:35.868Z,101616.63
2022-12-26T13:14:39.600Z,101615.25
2022-12-26T13:17:46.508Z,101625.69
2022-12-26T13:20:49.901Z,101622.41
2022-12-26T13:24:12.336Z,101625.88
2022-12-26T13:27:16.478Z,101618.84
2022-12-26T13:30:19.105Z,101625.25
2022-12-26T13:33:23.151Z,101620.38
2022-12-26T13:36:39.397Z,101642.81
2022-12-26T13:39:42.002Z,101631.06
2022-12-26T13:43:03.405Z,101636.31
2022-12-26T13:46:05.993Z,101646.25
2022-12-26T13:49:28.591Z,101638.25
2022-12-26T13:52:34.842Z,101652.81
2022-12-26T13:55:44.432Z,101657.06
2022-12-26T13:58:51.020Z,101654.94
2022-12-26T14:01:56.351Z,101657.22
2022-12-26T14:05:02.556Z,101655.13
2022-12-26T14:08:07.747Z,101657.84
2022-12-26T14:11:34.386Z,101649.19
2022-12-26T14:14:49.478Z,101667.47
2022-12-26T14:18:01.892Z,101669.09
2022-12-26T14:21:21.051Z,101675.16
2022-12-26T14:24:28.565Z,101690.69
2022-12-26T14:27:34.808Z,101688.72
2022-12-26T14:30:42.099Z,101690.53
2022-12-26T14:33:48.313Z,101688.38
2022-12-26T14:36:54.254Z,101693.78
2022-12-26T14:40:28.509Z,101691.66
2022-12-26T14:43:37.696Z,101695.59
2022-12-26T14:47:01.674Z,101698.88
2022-12-26T14:50:45.869Z,101706.69
2022-12-26T14:54:05.828Z,101702.44
2022-12-26T14:57:36.939Z,101700.28
2022-12-26T15:00:40.608Z,101714.94
2022-12-26T15:03:45.655Z,101716.25
2022-12-26T15:07:14.090Z,101717.22
2022-12-26T15:10:51.704Z,101714.59
2022-12-26T15:14:11.745Z,101723.19
2022-12-26T15:17:17.985Z,101732.78
2022-12-26T15:20:47.667Z,101727.88
2022-12-26T15:24:19.285Z,101732.56
2022-12-26T15:27:40.369Z,101732.84
2022-12-26T15:31:05.918Z,101728.19
2022-12-26T15:34:31.392Z,101735.00
2022-12-26T15:37:57.397Z,101740.16
2022-12-26T15:41:11.700Z,101736.69
2022-12-26T15:44:24.770Z,101739.59
2022-12-26T15:47:29.807Z,101741.69
2022-12-26T15:50:33.912Z,101750.91
2022-12-26T15:53:51.813Z,101756.28
2022-12-26T15:57:01.205Z,101762.28
2022-12-26T16:00:12.995Z,101758.59
2022-12-26T16:03:24.944Z,101750.69
2022-12-26T16:06:33.583Z,101764.56
2022-12-26T16:09:43.409Z,101772.34
2022-12-26T16:12:58.518Z,101770.72
2022-12-26T16:16:02.964Z,101779.63
2022-12-26T16:19:18.582Z,101785.50
2022-12-26T16:22:43.710Z,101791.34
2022-12-26T16:25:47.712Z,101784.88
2022-12-26T16:28:50.253Z,101786.53
2022-12-26T16:31:55.573Z,101784.06
2022-12-26T16:34:58.685Z,101788.59
2022-12-26T16:38:02.230Z,101782.88
2022-12-26T16:41:06.837Z,101790.13
2022-12-26T16:44:30.057Z,101781.63
2022-12-26T16:47:34.578Z,101782.22
2022-12-26T16:50:45.240Z,101782.56
2022-12-26T16:53:47.833Z,101786.75
2022-12-26T16:56:51.205Z,101786.47
2022-12-26T16:59:55.015Z,101794.78
2022-12-26T17:02:59.350Z,101796.41
2022-12-26T17:06:05.541Z,101793.00
2022-12-26T17:09:08.805Z,101808.22
2022-12-26T17:12:20.981Z,101808.50
2022-12-26T17:15:25.040Z,101807.09
2022-12-26T17:18:39.378Z,101811.59
2022-12-26T17:21:41.926Z,101820.19
2022-12-26T17:24:44.740Z,101822.47
2022-12-26T17:27:47.971Z,101823.06
2022-12-26T17:30:53.169Z,101837.75
2022-12-26T17:33:57.730Z,101835.81
2022-12-26T17:37:19.863Z,101831.09
2022-12-26T17:40:24.995Z,101842.16
2022-12-26T17:43:31.232Z,101842.16
2022-12-26T17:46:33.849Z,101850.78
2022-12-26T17:49:37.811Z,101828.63
2022-12-26T17:52:40.447Z,101851.59
2022-12-26T17:55:43.000Z,101835.63
2022-12-26T17:58:45.599Z,101854.06
2022-12-26T18:01:48.312Z,101839.09
2022-12-26T18:04:52.347Z,101855.09
2022-12-26T18:07:54.885Z,101855.09
2022-12-26T18:10:57.621Z,101869.47
2022-12-26T18:14:00.225Z,101860.63
2022-12-26T18:17:02.807Z,101859.50
2022-12-26T18:20:07.768Z,101863.63
2022-12-26T18:23:11.025Z,101864.94
2022-12-26T18:26:17.495Z,101868.25
2022-12-26T18:29:21.599Z,101870.72
2022-12-26T18:32:25.302Z,101875.13
2022-12-26T18:35:29.187Z,101885.38
2022-12-26T18:38:31.740Z,101875.59
2022-12-26T18:41:34.324Z,101888.47
2022-12-26T18:44:36.855Z,101883.75
2022-12-26T18:47:39.475Z,101901.50
2022-12-26T18:50:43.778Z,101899.25
2022-12-26T18:53:46.704Z,101910.53
2022-12-26T18:56:49.280Z,101926.31
2022-12-26T18:59:51.976Z,101920.78
2022-12-26T19:02:55.497Z,101929.09
2022-12-26T19:05:59.445Z,101929.63
2022-12-26T19:09:01.995Z,101924.06
2022-12-26T19:12:04.842Z,101922.44
2022-12-26T19:15:08.380Z,101916.88
2022-12-26T19:18:10.991Z,101920.78
2022-12-26T19:21:15.291Z,101921.59
2022-12-26T19:24:17.840Z,101919.34
2022-12-26T19:27:20.467Z,101928.78
2022-12-26T19:30:23.261Z,101927.38
2022-12-26T19:33:25.812Z,101927.38
2022-12-26T19:36:29.751Z,101926.84
2022-12-26T19:39:32.368Z,101923.25
2022-12-26T19:42:37.176Z,101932.41
2022-12-26T19:45:39.769Z,101929.63
2022-12-26T19:48:42.382Z,101932.41
2022-12-26T19:51:47.080Z,101930.16
2022-12-26T19:54:49.659Z,101935.06
2022-12-26T19:57:54.749Z,101933.94
2022-12-26T20:00:57.428Z,101937.22
2022-12-26T20:04:01.686Z,101934.47
2022-12-26T20:07:05.607Z,101938.84
2022-12-26T20:10:08.393Z,101939.66
2022-12-26T20:13:10.961Z,101944.50
2022-12-26T20:16:37.409Z,101943.91
2022-12-26T20:19:37.123Z,101951.59
2022-12-26T20:22:41.101Z,101950.16
2022-12-26T20:25:43.645Z,101956.53
2022-12-26T20:28:46.300Z,101963.19
2022-12-26T20:31:49.349Z,101956.53
2022-12-26T20:34:51.944Z,101955.41
2022-12-26T20:37:55.917Z,101952.63
2022-12-26T20:40:58.483Z,101953.47
2022-12-26T20:44:01.018Z,101958.19
2022-12-26T20:47:04.261Z,101960.53
2022-12-26T20:50:08.023Z,101977.06
2022-12-26T20:53:11.963Z,101968.22
2022-12-26T20:56:14.549Z,101984.84
2022-12-26T20:59:17.256Z,101986.50
2022-12-26T21:02:20.025Z,101987.13
2022-12-26T21:05:22.667Z,102000.16
2022-12-26T21:08:26.640Z,101996.56
2022-12-26T21:11:30.470Z,101992.97
2022-12-26T21:14:32.991Z,101993.78
2022-12-26T21:17:36.836Z,101994.91
2022-12-26T21:20:39.436Z,101998.22
2022-12-26T21:23:43.410Z,102006.53
2022-12-26T21:26:46.163Z,102013.19
2022-12-26T21:29:48.888Z,102008.75
2022-12-26T21:32:51.821Z,102020.97
2022-12-26T21:35:54.827Z,102025.50
2022-12-26T21:38:58.764Z,102024.66
2022-12-26T21:42:01.506Z,102024.66
2022-12-26T21:45:04.242Z,102033.81
2022-12-26T21:48:07.411Z,102030.41
2022-12-26T21:51:10.324Z,102035.66
2022-12-26T21:54:31.695Z,102037.59
2022-12-26T21:57:35.024Z,102029.59
2022-12-26T22:00:37.635Z,102048.69
2022-12-26T22:03:57.692Z,102045.91
2022-12-26T22:07:00.235Z,102056.47
2022-12-26T22:10:04.480Z,102049.31
2022-12-26T22:13:06.248Z,102064.28
2022-12-26T22:16:10.515Z,102066.81
2022-12-26T22:19:13.169Z,102061.59
2022-12-26T22:22:15.770Z,102061.59
2022-12-26T22:25:19.951Z,102059.13
2022-12-26T22:28:23.567Z,102061.66
2022-12-26T22:31:28.130Z,102058.91
2022-12-26T22:34:30.749Z,102065.25
2022-12-26T22:37:33.311Z,102071.63
2022-12-26T22:40:37.231Z,102070.81
2022-12-26T22:43:40.607Z,102070.81
2022-12-26T22:46:43.300Z,102071.13
2022-12-26T22:49:45.927Z,102086.09
2022-12-26T22:52:48.531Z,102076.16
2022-12-26T22:55:57.916Z,102080.03
2022-12-26T22:59:00.940Z,102080.03
2022-12-26T23:02:03.621Z,102091.13
2022-12-26T23:05:07.359Z,102093.88
2022-12-26T23:08:11.935Z,102096.66
2022-12-26T23:11:16.319Z,102092.25
2022-12-26T23:14:20.271Z,102098.91
2022-12-26T23:17:36.756Z,102089.84
2022-12-26T23:20:56.776Z,102106.72
2022-12-26T23:23:59.319Z,102110.59
2022-12-26T23:27:19.229Z,102108.94
2022-12-26T23:30:23.088Z,102104.53
2022-12-26T23:33:25.844Z,102099.28
2022-12-26T23:36:28.438Z,102106.47
2022-12-26T23:39:31.082Z,102117.84
2022-12-26T23:42:35.033Z,102111.81
2022-12-26T23:45:37.620Z,102107.38
2022-12-26T23:48:40.166Z,102114.88
2022-12-26T23:51:42.827Z,102111.25
2022-12-26T23:54:45.392Z,102107.66
2022-12-26T23:57:49.321Z,102110.97
